sensor_id;sensor_type;location;lat;lon;timestamp;P1;durP1;ratioP1;P2;durP2;ratioP2
54171;SDS011;40076;52.354;4.970;2023-03-14T00:02:15;15.20;;;3.10;;
54171;SDS011;40076;52.354;4.970;2023-03-14T00:04:41;17.42;;;2.78;;
54171;SDS011;40076;52.354;4.970;2023-03-14T00:07:06;14.40;;;2.47;;
54171;SDS011;40076;52.354;4.970;2023-03-14T00:09:31;17.85;;;3.25;;
54171;SDS011;40076;52.354;4.970;2023-03-14T00:11:56;17.75;;;3.55;;
54171;SDS011;40076;52.354;4.970;2023-03-14T00:14:22;16.95;;;2.75;;
54171;SDS011;40076;52.354;4.970;2023-03-14T00:16:48;21.30;;;3.30;;
54171;SDS011;40076;52.354;4.970;2023-03-14T00:19:13;16.23;;;2.45;;
54171;SDS011;40076;52.354;4.970;2023-03-14T00:21:38;16.00;;;2.45;;
54171;SDS011;40076;52.354;4.970;2023-03-14T00:24:04;16.90;;;2.65;;
54171;SDS011;40076;52.354;4.970;2023-03-14T00:26:29;14.00;;;2.70;;
54171;SDS011;40076;52.354;4.970;2023-03-14T00:28:55;21.25;;;3.05;;
54171;SDS011;40076;52.354;4.970;2023-03-14T00:31:20;20.42;;;2.92;;
54171;SDS011;40076;52.354;4.970;2023-03-14T00:33:46;18.20;;;2.65;;
54171;SDS011;40076;52.354;4.970;2023-03-14T00:36:13;14.95;;;3.05;;
54171;SDS011;40076;52.354;4.970;2023-03-14T00:38:40;16.13;;;2.72;;
54171;SDS011;40076;52.354;4.970;2023-03-14T00:41:08;14.95;;;3.30;;
54171;SDS011;40076;52.354;4.970;2023-03-14T00:43:36;17.20;;;2.83;;
54171;SDS011;40076;52.354;4.970;2023-03-14T00:46:02;12.45;;;2.53;;
54171;SDS011;40076;52.354;4.970;2023-03-14T00:48:28;14.65;;;2.53;;
54171;SDS011;40076;52.354;4.970;2023-03-14T00:50:54;12.35;;;2.40;;
54171;SDS011;40076;52.354;4.970;2023-03-14T00:53:19;16.55;;;2.78;;
54171;SDS011;40076;52.354;4.970;2023-03-14T00:55:45;13.70;;;3.13;;
54171;SDS011;40076;52.354;4.970;2023-03-14T00:58:12;13.07;;;2.38;;
54171;SDS011;40076;52.354;4.970;2023-03-14T01:00:39;16.83;;;2.05;;
54171;SDS011;40076;52.354;4.970;2023-03-14T01:03:05;14.25;;;2.35;;
54171;SDS011;40076;52.354;4.970;2023-03-14T01:05:31;17.52;;;2.50;;
54171;SDS011;40076;52.354;4.970;2023-03-14T01:07:56;13.25;;;2.50;;
54171;SDS011;40076;52.354;4.970;2023-03-14T01:10:22;11.30;;;1.98;;
54171;SDS011;40076;52.354;4.970;2023-03-14T01:12:48;15.63;;;2.25;;
54171;SDS011;40076;52.354;4.970;2023-03-14T01:15:16;14.15;;;2.03;;
54171;SDS011;40076;52.354;4.970;2023-03-14T01:17:41;16.17;;;2.25;;
54171;SDS011;40076;52.354;4.970;2023-03-14T01:20:08;18.25;;;2.45;;
54171;SDS011;40076;52.354;4.970;2023-03-14T01:22:36;12.10;;;2.17;;
54171;SDS011;40076;52.354;4.970;2023-03-14T01:25:04;16.65;;;3.80;;
54171;SDS011;40076;52.354;4.970;2023-03-14T01:27:40;17.83;;;3.17;;
54171;SDS011;40076;52.354;4.970;2023-03-14T01:30:06;20.60;;;3.45;;
54171;SDS011;40076;52.354;4.970;2023-03-14T01:32:33;14.40;;;2.92;;
54171;SDS011;40076;52.354;4.970;2023-03-14T01:34:58;17.80;;;2.80;;
54171;SDS011;40076;52.354;4.970;2023-03-14T01:37:24;23.73;;;4.05;;
54171;SDS011;40076;52.354;4.970;2023-03-14T01:39:49;16.33;;;3.58;;
54171;SDS011;40076;52.354;4.970;2023-03-14T01:42:14;21.10;;;3.80;;
54171;SDS011;40076;52.354;4.970;2023-03-14T01:44:51;21.33;;;2.95;;
54171;SDS011;40076;52.354;4.970;2023-03-14T01:47:17;20.17;;;3.65;;
54171;SDS011;40076;52.354;4.970;2023-03-14T01:49:42;21.35;;;4.47;;
54171;SDS011;40076;52.354;4.970;2023-03-14T01:52:16;26.92;;;4.68;;
54171;SDS011;40076;52.354;4.970;2023-03-14T01:54:55;19.92;;;3.25;;
54171;SDS011;40076;52.354;4.970;2023-03-14T01:57:29;21.23;;;3.40;;
54171;SDS011;40076;52.354;4.970;2023-03-14T02:02:49;23.48;;;4.03;;
54171;SDS011;40076;52.354;4.970;2023-03-14T02:05:39;23.27;;;3.45;;
54171;SDS011;40076;52.354;4.970;2023-03-14T02:08:10;21.10;;;4.15;;
54171;SDS011;40076;52.354;4.970;2023-03-14T02:10:39;24.65;;;3.17;;
54171;SDS011;40076;52.354;4.970;2023-03-14T02:13:07;25.17;;;3.70;;
54171;SDS011;40076;52.354;4.970;2023-03-14T02:15:33;19.52;;;3.50;;
54171;SDS011;40076;52.354;4.970;2023-03-14T02:18:03;23.48;;;3.20;;
54171;SDS011;40076;52.354;4.970;2023-03-14T02:20:38;27.77;;;4.28;;
54171;SDS011;40076;52.354;4.970;2023-03-14T02:23:12;22.60;;;3.28;;
54171;SDS011;40076;52.354;4.970;2023-03-14T02:25:51;21.27;;;3.25;;
54171;SDS011;40076;52.354;4.970;2023-03-14T02:28:23;21.77;;;2.97;;
54171;SDS011;40076;52.354;4.970;2023-03-14T02:30:48;18.27;;;2.95;;
54171;SDS011;40076;52.354;4.970;2023-03-14T02:33:15;17.73;;;2.78;;
54171;SDS011;40076;52.354;4.970;2023-03-14T02:35:47;19.08;;;3.65;;
54171;SDS011;40076;52.354;4.970;2023-03-14T02:40:46;19.20;;;3.70;;
54171;SDS011;40076;52.354;4.970;2023-03-14T02:43:11;21.20;;;3.15;;
54171;SDS011;40076;52.354;4.970;2023-03-14T02:48:09;18.67;;;3.35;;
54171;SDS011;40076;52.354;4.970;2023-03-14T02:50:38;19.33;;;3.25;;
54171;SDS011;40076;52.354;4.970;2023-03-14T02:53:11;13.52;;;2.65;;
54171;SDS011;40076;52.354;4.970;2023-03-14T02:55:47;18.42;;;3.03;;
54171;SDS011;40076;52.354;4.970;2023-03-14T02:58:13;25.15;;;3.92;;
54171;SDS011;40076;52.354;4.970;2023-03-14T03:00:38;17.05;;;3.15;;
54171;SDS011;40076;52.354;4.970;2023-03-14T03:03:04;17.23;;;3.45;;
54171;SDS011;40076;52.354;4.970;2023-03-14T03:05:30;20.65;;;3.40;;
54171;SDS011;40076;52.354;4.970;2023-03-14T03:07:56;20.42;;;3.17;;
54171;SDS011;40076;52.354;4.970;2023-03-14T03:10:22;18.77;;;3.50;;
54171;SDS011;40076;52.354;4.970;2023-03-14T03:12:47;18.70;;;3.15;;
54171;SDS011;40076;52.354;4.970;2023-03-14T03:15:13;18.40;;;3.40;;
54171;SDS011;40076;52.354;4.970;2023-03-14T03:17:38;15.32;;;2.45;;
54171;SDS011;40076;52.354;4.970;2023-03-14T03:20:04;14.05;;;2.88;;
54171;SDS011;40076;52.354;4.970;2023-03-14T03:22:30;13.57;;;2.92;;
54171;SDS011;40076;52.354;4.970;2023-03-14T03:24:55;12.38;;;2.50;;
54171;SDS011;40076;52.354;4.970;2023-03-14T03:27:21;8.98;;;2.40;;
54171;SDS011;40076;52.354;4.970;2023-03-14T03:29:46;19.00;;;4.57;;
54171;SDS011;40076;52.354;4.970;2023-03-14T03:32:12;13.65;;;2.92;;
54171;SDS011;40076;52.354;4.970;2023-03-14T03:34:38;9.32;;;2.45;;
54171;SDS011;40076;52.354;4.970;2023-03-14T03:37:03;16.58;;;2.92;;
54171;SDS011;40076;52.354;4.970;2023-03-14T03:39:28;16.65;;;3.22;;
54171;SDS011;40076;52.354;4.970;2023-03-14T03:41:54;13.95;;;2.90;;
54171;SDS011;40076;52.354;4.970;2023-03-14T03:44:19;14.60;;;3.03;;
54171;SDS011;40076;52.354;4.970;2023-03-14T03:46:44;11.30;;;2.83;;
54171;SDS011;40076;52.354;4.970;2023-03-14T03:49:10;11.57;;;2.70;;
54171;SDS011;40076;52.354;4.970;2023-03-14T03:51:35;22.17;;;3.17;;
54171;SDS011;40076;52.354;4.970;2023-03-14T03:54:00;14.45;;;4.18;;
54171;SDS011;40076;52.354;4.970;2023-03-14T03:56:25;15.43;;;3.72;;
54171;SDS011;40076;52.354;4.970;2023-03-14T03:58:51;15.60;;;3.92;;
54171;SDS011;40076;52.354;4.970;2023-03-14T04:01:16;11.05;;;2.70;;
54171;SDS011;40076;52.354;4.970;2023-03-14T04:03:41;18.02;;;4.22;;
54171;SDS011;40076;52.354;4.970;2023-03-14T04:06:08;14.40;;;2.88;;
54171;SDS011;40076;52.354;4.970;2023-03-14T04:08:35;13.68;;;3.17;;
54171;SDS011;40076;52.354;4.970;2023-03-14T04:11:01;18.05;;;3.85;;
54171;SDS011;40076;52.354;4.970;2023-03-14T04:13:27;16.33;;;3.05;;
54171;SDS011;40076;52.354;4.970;2023-03-14T04:15:53;16.40;;;3.40;;
54171;SDS011;40076;52.354;4.970;2023-03-14T04:18:20;14.90;;;2.63;;
54171;SDS011;40076;52.354;4.970;2023-03-14T04:20:50;15.95;;;3.20;;
54171;SDS011;40076;52.354;4.970;2023-03-14T04:23:16;13.57;;;3.00;;
54171;SDS011;40076;52.354;4.970;2023-03-14T04:25:42;15.82;;;3.38;;
54171;SDS011;40076;52.354;4.970;2023-03-14T04:28:07;21.85;;;3.58;;
54171;SDS011;40076;52.354;4.970;2023-03-14T04:30:32;16.63;;;4.15;;
54171;SDS011;40076;52.354;4.970;2023-03-14T04:32:58;25.55;;;5.50;;
54171;SDS011;40076;52.354;4.970;2023-03-14T04:35:23;15.65;;;4.85;;
54171;SDS011;40076;52.354;4.970;2023-03-14T04:37:51;14.35;;;5.00;;
54171;SDS011;40076;52.354;4.970;2023-03-14T04:40:17;18.92;;;6.20;;
54171;SDS011;40076;52.354;4.970;2023-03-14T04:42:43;17.60;;;5.15;;
54171;SDS011;40076;52.354;4.970;2023-03-14T04:45:08;21.05;;;5.60;;
54171;SDS011;40076;52.354;4.970;2023-03-14T04:47:34;18.27;;;6.30;;
54171;SDS011;40076;52.354;4.970;2023-03-14T04:49:59;18.88;;;5.65;;
54171;SDS011;40076;52.354;4.970;2023-03-14T04:52:25;20.38;;;5.28;;
54171;SDS011;40076;52.354;4.970;2023-03-14T04:54:51;15.77;;;5.00;;
54171;SDS011;40076;52.354;4.970;2023-03-14T04:57:17;22.67;;;5.57;;
54171;SDS011;40076;52.354;4.970;2023-03-14T04:59:42;15.77;;;5.55;;
54171;SDS011;40076;52.354;4.970;2023-03-14T05:02:08;16.77;;;4.57;;
54171;SDS011;40076;52.354;4.970;2023-03-14T05:04:33;16.50;;;4.80;;
54171;SDS011;40076;52.354;4.970;2023-03-14T05:06:58;15.90;;;4.25;;
54171;SDS011;40076;52.354;4.970;2023-03-14T05:12:28;15.43;;;3.83;;
54171;SDS011;40076;52.354;4.970;2023-03-14T05:14:53;18.38;;;4.53;;
54171;SDS011;40076;52.354;4.970;2023-03-14T05:17:19;11.90;;;3.83;;
54171;SDS011;40076;52.354;4.970;2023-03-14T05:19:44;15.25;;;4.30;;
54171;SDS011;40076;52.354;4.970;2023-03-14T05:22:10;20.50;;;4.68;;
54171;SDS011;40076;52.354;4.970;2023-03-14T05:24:36;15.55;;;4.45;;
54171;SDS011;40076;52.354;4.970;2023-03-14T05:27:02;14.80;;;4.45;;
54171;SDS011;40076;52.354;4.970;2023-03-14T05:29:28;15.43;;;4.82;;
54171;SDS011;40076;52.354;4.970;2023-03-14T05:31:53;16.15;;;5.00;;
54171;SDS011;40076;52.354;4.970;2023-03-14T05:34:18;14.73;;;5.68;;
54171;SDS011;40076;52.354;4.970;2023-03-14T05:36:44;17.75;;;5.50;;
54171;SDS011;40076;52.354;4.970;2023-03-14T05:39:09;17.30;;;5.68;;
54171;SDS011;40076;52.354;4.970;2023-03-14T05:41:34;13.80;;;4.65;;
54171;SDS011;40076;52.354;4.970;2023-03-14T05:44:00;16.02;;;4.70;;
54171;SDS011;40076;52.354;4.970;2023-03-14T05:46:26;17.48;;;5.18;;
54171;SDS011;40076;52.354;4.970;2023-03-14T05:48:51;14.48;;;4.50;;
54171;SDS011;40076;52.354;4.970;2023-03-14T05:51:16;7.10;;;2.30;;
54171;SDS011;40076;52.354;4.970;2023-03-14T05:53:41;7.22;;;1.27;;
54171;SDS011;40076;52.354;4.970;2023-03-14T05:56:07;3.85;;;1.13;;
54171;SDS011;40076;52.354;4.970;2023-03-14T05:58:33;5.05;;;1.10;;
54171;SDS011;40076;52.354;4.970;2023-03-14T06:01:01;8.93;;;1.27;;
54171;SDS011;40076;52.354;4.970;2023-03-14T06:03:28;3.65;;;1.20;;
54171;SDS011;40076;52.354;4.970;2023-03-14T06:05:53;9.52;;;1.60;;
54171;SDS011;40076;52.354;4.970;2023-03-14T06:08:19;8.32;;;1.63;;
54171;SDS011;40076;52.354;4.970;2023-03-14T06:10:44;5.70;;;1.20;;
54171;SDS011;40076;52.354;4.970;2023-03-14T06:13:09;7.97;;;1.40;;
54171;SDS011;40076;52.354;4.970;2023-03-14T06:15:35;7.35;;;1.35;;
54171;SDS011;40076;52.354;4.970;2023-03-14T06:18:01;8.50;;;1.70;;
54171;SDS011;40076;52.354;4.970;2023-03-14T06:20:26;12.75;;;1.90;;
54171;SDS011;40076;52.354;4.970;2023-03-14T06:22:51;5.95;;;1.38;;
54171;SDS011;40076;52.354;4.970;2023-03-14T06:25:17;4.78;;;1.20;;
54171;SDS011;40076;52.354;4.970;2023-03-14T06:27:42;8.45;;;1.65;;
54171;SDS011;40076;52.354;4.970;2023-03-14T06:30:08;5.50;;;1.10;;
54171;SDS011;40076;52.354;4.970;2023-03-14T06:32:33;6.50;;;1.33;;
54171;SDS011;40076;52.354;4.970;2023-03-14T06:34:59;7.93;;;1.67;;
54171;SDS011;40076;52.354;4.970;2023-03-14T06:37:28;3.70;;;0.90;;
54171;SDS011;40076;52.354;4.970;2023-03-14T06:39:54;7.00;;;1.23;;
54171;SDS011;40076;52.354;4.970;2023-03-14T06:42:20;3.67;;;0.82;;
54171;SDS011;40076;52.354;4.970;2023-03-14T06:44:45;7.88;;;1.08;;
54171;SDS011;40076;52.354;4.970;2023-03-14T06:47:11;8.43;;;1.50;;
54171;SDS011;40076;52.354;4.970;2023-03-14T06:49:37;7.63;;;1.30;;
54171;SDS011;40076;52.354;4.970;2023-03-14T06:52:02;4.63;;;1.20;;
54171;SDS011;40076;52.354;4.970;2023-03-14T06:54:27;7.90;;;1.25;;
54171;SDS011;40076;52.354;4.970;2023-03-14T06:56:52;11.43;;;1.08;;
54171;SDS011;40076;52.354;4.970;2023-03-14T06:59:18;8.98;;;1.13;;
54171;SDS011;40076;52.354;4.970;2023-03-14T07:01:43;8.15;;;1.02;;
54171;SDS011;40076;52.354;4.970;2023-03-14T07:04:09;6.28;;;0.73;;
54171;SDS011;40076;52.354;4.970;2023-03-14T07:06:34;6.13;;;1.10;;
54171;SDS011;40076;52.354;4.970;2023-03-14T07:09:00;7.03;;;0.90;;
54171;SDS011;40076;52.354;4.970;2023-03-14T07:11:25;8.32;;;0.90;;
54171;SDS011;40076;52.354;4.970;2023-03-14T07:13:51;5.68;;;0.90;;
54171;SDS011;40076;52.354;4.970;2023-03-14T07:16:16;8.50;;;2.42;;
54171;SDS011;40076;52.354;4.970;2023-03-14T07:18:42;6.32;;;0.80;;
54171;SDS011;40076;52.354;4.970;2023-03-14T07:21:07;10.18;;;1.35;;
54171;SDS011;40076;52.354;4.970;2023-03-14T07:23:37;11.45;;;1.10;;
54171;SDS011;40076;52.354;4.970;2023-03-14T07:26:03;11.38;;;1.25;;
54171;SDS011;40076;52.354;4.970;2023-03-14T07:28:28;8.77;;;1.35;;
54171;SDS011;40076;52.354;4.970;2023-03-14T07:30:54;7.45;;;0.90;;
54171;SDS011;40076;52.354;4.970;2023-03-14T07:33:20;14.82;;;1.25;;
54171;SDS011;40076;52.354;4.970;2023-03-14T07:35:48;11.43;;;1.08;;
54171;SDS011;40076;52.354;4.970;2023-03-14T07:38:14;9.85;;;1.55;;
54171;SDS011;40076;52.354;4.970;2023-03-14T07:40:40;7.80;;;0.90;;
54171;SDS011;40076;52.354;4.970;2023-03-14T07:43:05;8.88;;;1.10;;
54171;SDS011;40076;52.354;4.970;2023-03-14T07:45:31;13.27;;;1.50;;
54171;SDS011;40076;52.354;4.970;2023-03-14T07:47:57;13.05;;;1.27;;
54171;SDS011;40076;52.354;4.970;2023-03-14T07:50:23;8.80;;;0.93;;
54171;SDS011;40076;52.354;4.970;2023-03-14T07:52:49;11.43;;;1.20;;
54171;SDS011;40076;52.354;4.970;2023-03-14T07:55:14;10.95;;;1.45;;
54171;SDS011;40076;52.354;4.970;2023-03-14T07:57:40;7.70;;;1.30;;
54171;SDS011;40076;52.354;4.970;2023-03-14T08:00:06;8.00;;;1.02;;
54171;SDS011;40076;52.354;4.970;2023-03-14T08:02:32;7.90;;;1.00;;
54171;SDS011;40076;52.354;4.970;2023-03-14T08:04:57;11.05;;;1.08;;
54171;SDS011;40076;52.354;4.970;2023-03-14T08:07:23;8.93;;;1.08;;
54171;SDS011;40076;52.354;4.970;2023-03-14T08:09:48;7.38;;;0.80;;
54171;SDS011;40076;52.354;4.970;2023-03-14T08:12:13;17.15;;;1.73;;
54171;SDS011;40076;52.354;4.970;2023-03-14T08:14:39;15.27;;;1.08;;
54171;SDS011;40076;52.354;4.970;2023-03-14T08:17:11;7.55;;;0.77;;
54171;SDS011;40076;52.354;4.970;2023-03-14T08:19:37;7.50;;;0.93;;
54171;SDS011;40076;52.354;4.970;2023-03-14T08:22:02;6.57;;;0.95;;
54171;SDS011;40076;52.354;4.970;2023-03-14T08:24:28;7.28;;;1.02;;
54171;SDS011;40076;52.354;4.970;2023-03-14T08:26:53;5.55;;;0.93;;
54171;SDS011;40076;52.354;4.970;2023-03-14T08:29:18;7.90;;;1.70;;
54171;SDS011;40076;52.354;4.970;2023-03-14T08:31:44;11.32;;;1.05;;
54171;SDS011;40076;52.354;4.970;2023-03-14T08:34:09;8.38;;;1.10;;
54171;SDS011;40076;52.354;4.970;2023-03-14T08:36:34;14.35;;;1.33;;
54171;SDS011;40076;52.354;4.970;2023-03-14T08:39:00;12.43;;;2.58;;
54171;SDS011;40076;52.354;4.970;2023-03-14T08:41:25;9.40;;;1.45;;
54171;SDS011;40076;52.354;4.970;2023-03-14T08:43:50;18.98;;;2.08;;
54171;SDS011;40076;52.354;4.970;2023-03-14T08:46:19;9.30;;;1.83;;
54171;SDS011;40076;52.354;4.970;2023-03-14T08:48:44;20.20;;;2.33;;
54171;SDS011;40076;52.354;4.970;2023-03-14T08:51:11;19.35;;;2.75;;
54171;SDS011;40076;52.354;4.970;2023-03-14T08:53:40;19.42;;;3.13;;
54171;SDS011;40076;52.354;4.970;2023-03-14T08:57:00;18.20;;;3.83;;
54171;SDS011;40076;52.354;4.970;2023-03-14T09:00:08;18.88;;;2.67;;
54171;SDS011;40076;52.354;4.970;2023-03-14T09:02:40;16.70;;;3.22;;
54171;SDS011;40076;52.354;4.970;2023-03-14T09:05:05;19.45;;;2.75;;
54171;SDS011;40076;52.354;4.970;2023-03-14T09:07:31;21.00;;;3.65;;
54171;SDS011;40076;52.354;4.970;2023-03-14T09:09:57;24.58;;;3.50;;
54171;SDS011;40076;52.354;4.970;2023-03-14T09:12:22;16.13;;;2.72;;
54171;SDS011;40076;52.354;4.970;2023-03-14T09:14:47;18.73;;;2.65;;
54171;SDS011;40076;52.354;4.970;2023-03-14T09:17:13;20.98;;;2.88;;
54171;SDS011;40076;52.354;4.970;2023-03-14T09:19:38;19.85;;;2.65;;
54171;SDS011;40076;52.354;4.970;2023-03-14T09:22:03;17.73;;;2.83;;
54171;SDS011;40076;52.354;4.970;2023-03-14T09:24:29;16.75;;;2.53;;
54171;SDS011;40076;52.354;4.970;2023-03-14T09:26:54;18.48;;;2.83;;
54171;SDS011;40076;52.354;4.970;2023-03-14T09:29:21;19.30;;;2.75;;
54171;SDS011;40076;52.354;4.970;2023-03-14T09:31:46;16.30;;;2.67;;
54171;SDS011;40076;52.354;4.970;2023-03-14T09:34:11;21.17;;;3.10;;
54171;SDS011;40076;52.354;4.970;2023-03-14T09:36:37;19.85;;;3.17;;
54171;SDS011;40076;52.354;4.970;2023-03-14T09:39:03;23.15;;;3.03;;
54171;SDS011;40076;52.354;4.970;2023-03-14T09:41:30;16.55;;;3.13;;
54171;SDS011;40076;52.354;4.970;2023-03-14T09:44:32;16.23;;;2.58;;
54171;SDS011;40076;52.354;4.970;2023-03-14T09:46:52;21.20;;;2.60;;
54171;SDS011;40076;52.354;4.970;2023-03-14T09:49:20;19.50;;;2.70;;
54171;SDS011;40076;52.354;4.970;2023-03-14T09:51:49;20.02;;;3.25;;
54171;SDS011;40076;52.354;4.970;2023-03-14T09:54:23;14.63;;;2.70;;
54171;SDS011;40076;52.354;4.970;2023-03-14T09:56:54;24.90;;;3.78;;
54171;SDS011;40076;52.354;4.970;2023-03-14T09:59:20;18.42;;;3.05;;
54171;SDS011;40076;52.354;4.970;2023-03-14T10:01:45;23.27;;;3.47;;
54171;SDS011;40076;52.354;4.970;2023-03-14T10:04:12;22.02;;;3.03;;
54171;SDS011;40076;52.354;4.970;2023-03-14T10:06:42;24.63;;;3.25;;
54171;SDS011;40076;52.354;4.970;2023-03-14T10:09:23;21.95;;;3.72;;
54171;SDS011;40076;52.354;4.970;2023-03-14T10:11:51;26.80;;;3.30;;
54171;SDS011;40076;52.354;4.970;2023-03-14T10:14:28;19.48;;;3.05;;
54171;SDS011;40076;52.354;4.970;2023-03-14T10:16:54;25.50;;;4.07;;
54171;SDS011;40076;52.354;4.970;2023-03-14T10:19:30;25.17;;;3.90;;
54171;SDS011;40076;52.354;4.970;2023-03-14T10:21:56;25.90;;;3.78;;
54171;SDS011;40076;52.354;4.970;2023-03-14T10:24:27;21.48;;;3.60;;
54171;SDS011;40076;52.354;4.970;2023-03-14T10:26:58;23.35;;;3.17;;
54171;SDS011;40076;52.354;4.970;2023-03-14T10:29:29;23.48;;;3.05;;
54171;SDS011;40076;52.354;4.970;2023-03-14T10:32:06;23.27;;;2.88;;
54171;SDS011;40076;52.354;4.970;2023-03-14T10:34:36;24.33;;;3.40;;
54171;SDS011;40076;52.354;4.970;2023-03-14T10:42:15;18.10;;;2.42;;
54171;SDS011;40076;52.354;4.970;2023-03-14T10:44:44;22.52;;;3.72;;
54171;SDS011;40076;52.354;4.970;2023-03-14T10:47:15;17.48;;;2.67;;
54171;SDS011;40076;52.354;4.970;2023-03-14T10:49:44;18.58;;;2.97;;
54171;SDS011;40076;52.354;4.970;2023-03-14T10:52:26;20.23;;;2.38;;
54171;SDS011;40076;52.354;4.970;2023-03-14T10:57:26;17.38;;;2.78;;
54171;SDS011;40076;52.354;4.970;2023-03-14T10:59:53;19.98;;;3.17;;
54171;SDS011;40076;52.354;4.970;2023-03-14T11:02:43;19.95;;;2.78;;
54171;SDS011;40076;52.354;4.970;2023-03-14T11:07:53;20.85;;;3.22;;
54171;SDS011;40076;52.354;4.970;2023-03-14T11:10:35;14.63;;;2.55;;
54171;SDS011;40076;52.354;4.970;2023-03-14T11:13:14;21.80;;;2.50;;
54171;SDS011;40076;52.354;4.970;2023-03-14T11:21:04;15.40;;;1.83;;
54171;SDS011;40076;52.354;4.970;2023-03-14T11:26:20;19.23;;;2.25;;
54171;SDS011;40076;52.354;4.970;2023-03-14T11:28:56;14.98;;;2.22;;
54171;SDS011;40076;52.354;4.970;2023-03-14T11:36:38;10.50;;;1.58;;
54171;SDS011;40076;52.354;4.970;2023-03-14T11:39:13;19.48;;;3.15;;
54171;SDS011;40076;52.354;4.970;2023-03-14T11:41:41;17.25;;;2.22;;
54171;SDS011;40076;52.354;4.970;2023-03-14T11:44:16;16.30;;;2.10;;
54171;SDS011;40076;52.354;4.970;2023-03-14T11:46:46;14.45;;;2.30;;
54171;SDS011;40076;52.354;4.970;2023-03-14T11:51:52;15.82;;;2.92;;
54171;SDS011;40076;52.354;4.970;2023-03-14T11:54:38;12.98;;;2.00;;
54171;SDS011;40076;52.354;4.970;2023-03-14T11:57:18;12.18;;;1.70;;
54171;SDS011;40076;52.354;4.970;2023-03-14T12:13:38;11.90;;;1.90;;
54171;SDS011;40076;52.354;4.970;2023-03-14T12:16:05;9.38;;;1.50;;
54171;SDS011;40076;52.354;4.970;2023-03-14T12:18:44;11.55;;;2.50;;
54171;SDS011;40076;52.354;4.970;2023-03-14T12:21:11;7.68;;;1.33;;
54171;SDS011;40076;52.354;4.970;2023-03-14T12:23:50;7.22;;;1.35;;
54171;SDS011;40076;52.354;4.970;2023-03-14T12:26:22;10.30;;;2.20;;
54171;SDS011;40076;52.354;4.970;2023-03-14T12:29:11;11.02;;;1.73;;
54171;SDS011;40076;52.354;4.970;2023-03-14T12:31:43;8.50;;;1.50;;
54171;SDS011;40076;52.354;4.970;2023-03-14T12:39:20;11.80;;;1.35;;
54171;SDS011;40076;52.354;4.970;2023-03-14T12:42:00;14.10;;;2.08;;
54171;SDS011;40076;52.354;4.970;2023-03-14T12:46:57;12.57;;;2.00;;
54171;SDS011;40076;52.354;4.970;2023-03-14T12:49:31;10.18;;;1.30;;
54171;SDS011;40076;52.354;4.970;2023-03-14T12:52:01;15.70;;;1.65;;
54171;SDS011;40076;52.354;4.970;2023-03-14T12:57:28;12.00;;;2.25;;
54171;SDS011;40076;52.354;4.970;2023-03-14T12:59:58;14.95;;;1.90;;
54171;SDS011;40076;52.354;4.970;2023-03-14T13:02:27;12.13;;;1.98;;
54171;SDS011;40076;52.354;4.970;2023-03-14T13:05:14;11.52;;;1.83;;
54171;SDS011;40076;52.354;4.970;2023-03-14T13:10:27;15.67;;;1.90;;
54171;SDS011;40076;52.354;4.970;2023-03-14T13:15:43;8.00;;;1.77;;
54171;SDS011;40076;52.354;4.970;2023-03-14T13:21:26;12.68;;;2.30;;
54171;SDS011;40076;52.354;4.970;2023-03-14T13:23:57;15.15;;;1.83;;
54171;SDS011;40076;52.354;4.970;2023-03-14T13:26:42;12.80;;;1.38;;
54171;SDS011;40076;52.354;4.970;2023-03-14T13:29:15;9.93;;;1.55;;
54171;SDS011;40076;52.354;4.970;2023-03-14T13:31:49;11.95;;;1.55;;
54171;SDS011;40076;52.354;4.970;2023-03-14T13:34:17;10.70;;;1.67;;
54171;SDS011;40076;52.354;4.970;2023-03-14T13:36:42;8.23;;;1.10;;
54171;SDS011;40076;52.354;4.970;2023-03-14T13:39:17;7.63;;;1.42;;
54171;SDS011;40076;52.354;4.970;2023-03-14T13:41:45;9.52;;;1.10;;
54171;SDS011;40076;52.354;4.970;2023-03-14T13:47:05;11.52;;;1.52;;
54171;SDS011;40076;52.354;4.970;2023-03-14T13:49:42;8.60;;;1.20;;
54171;SDS011;40076;52.354;4.970;2023-03-14T13:54:54;16.42;;;2.13;;
54171;SDS011;40076;52.354;4.970;2023-03-14T13:57:20;6.60;;;1.35;;
54171;SDS011;40076;52.354;4.970;2023-03-14T13:59:57;8.13;;;1.30;;
54171;SDS011;40076;52.354;4.970;2023-03-14T14:02:32;8.50;;;1.23;;
54171;SDS011;40076;52.354;4.970;2023-03-14T14:04:58;6.72;;;1.10;;
54171;SDS011;40076;52.354;4.970;2023-03-14T14:07:25;5.78;;;1.02;;
54171;SDS011;40076;52.354;4.970;2023-03-14T14:09:51;7.97;;;1.60;;
54171;SDS011;40076;52.354;4.970;2023-03-14T14:12:28;8.63;;;2.30;;
54171;SDS011;40076;52.354;4.970;2023-03-14T14:17:28;9.00;;;1.77;;
54171;SDS011;40076;52.354;4.970;2023-03-14T14:20:14;9.60;;;1.17;;
54171;SDS011;40076;52.354;4.970;2023-03-14T14:22:46;9.95;;;1.33;;
54171;SDS011;40076;52.354;4.970;2023-03-14T14:25:15;9.77;;;1.75;;
54171;SDS011;40076;52.354;4.970;2023-03-14T14:27:42;11.18;;;1.33;;
54171;SDS011;40076;52.354;4.970;2023-03-14T14:32:43;7.68;;;1.63;;
54171;SDS011;40076;52.354;4.970;2023-03-14T14:35:10;6.10;;;0.98;;
54171;SDS011;40076;52.354;4.970;2023-03-14T14:37:51;9.95;;;1.50;;
54171;SDS011;40076;52.354;4.970;2023-03-14T14:40:20;10.40;;;1.88;;
54171;SDS011;40076;52.354;4.970;2023-03-14T14:42:46;8.27;;;1.10;;
54171;SDS011;40076;52.354;4.970;2023-03-14T14:45:13;5.65;;;1.00;;
54171;SDS011;40076;52.354;4.970;2023-03-14T14:47:51;11.57;;;1.30;;
54171;SDS011;40076;52.354;4.970;2023-03-14T14:50:34;6.53;;;1.30;;
54171;SDS011;40076;52.354;4.970;2023-03-14T14:53:13;7.82;;;1.35;;
54171;SDS011;40076;52.354;4.970;2023-03-14T14:55:49;7.73;;;1.20;;
54171;SDS011;40076;52.354;4.970;2023-03-14T15:00:59;12.18;;;1.50;;
54171;SDS011;40076;52.354;4.970;2023-03-14T15:03:31;12.57;;;2.33;;
54171;SDS011;40076;52.354;4.970;2023-03-14T15:05:58;12.88;;;2.20;;
54171;SDS011;40076;52.354;4.970;2023-03-14T15:08:24;11.98;;;1.80;;
54171;SDS011;40076;52.354;4.970;2023-03-14T15:10:51;10.18;;;1.40;;
54171;SDS011;40076;52.354;4.970;2023-03-14T15:13:17;11.48;;;1.73;;
54171;SDS011;40076;52.354;4.970;2023-03-14T15:15:42;7.70;;;1.40;;
54171;SDS011;40076;52.354;4.970;2023-03-14T15:18:12;9.88;;;1.30;;
54171;SDS011;40076;52.354;4.970;2023-03-14T15:20:40;11.80;;;1.90;;
54171;SDS011;40076;52.354;4.970;2023-03-14T15:23:12;11.45;;;1.77;;
54171;SDS011;40076;52.354;4.970;2023-03-14T15:25:39;10.07;;;1.38;;
54171;SDS011;40076;52.354;4.970;2023-03-14T15:28:10;12.73;;;1.77;;
54171;SDS011;40076;52.354;4.970;2023-03-14T15:30:40;12.90;;;1.10;;
54171;SDS011;40076;52.354;4.970;2023-03-14T15:33:05;11.23;;;1.30;;
54171;SDS011;40076;52.354;4.970;2023-03-14T15:35:33;10.50;;;1.50;;
54171;SDS011;40076;52.354;4.970;2023-03-14T15:37:59;10.55;;;2.00;;
54171;SDS011;40076;52.354;4.970;2023-03-14T15:40:25;12.38;;;2.28;;
54171;SDS011;40076;52.354;4.970;2023-03-14T15:42:50;16.98;;;2.97;;
54171;SDS011;40076;52.354;4.970;2023-03-14T15:45:15;15.55;;;1.90;;
54171;SDS011;40076;52.354;4.970;2023-03-14T15:47:41;14.52;;;1.63;;
54171;SDS011;40076;52.354;4.970;2023-03-14T15:50:08;13.63;;;1.95;;
54171;SDS011;40076;52.354;4.970;2023-03-14T15:52:34;9.68;;;1.95;;
54171;SDS011;40076;52.354;4.970;2023-03-14T15:54:59;11.40;;;1.67;;
54171;SDS011;40076;52.354;4.970;2023-03-14T15:57:25;12.10;;;1.85;;
54171;SDS011;40076;52.354;4.970;2023-03-14T15:59:50;16.27;;;2.50;;
54171;SDS011;40076;52.354;4.970;2023-03-14T16:02:15;19.30;;;4.32;;
54171;SDS011;40076;52.354;4.970;2023-03-14T16:04:41;9.88;;;1.70;;
54171;SDS011;40076;52.354;4.970;2023-03-14T16:07:06;10.75;;;1.45;;
54171;SDS011;40076;52.354;4.970;2023-03-14T16:09:32;13.10;;;1.60;;